Austin, Texas
Traffic Map
Current Weather Conditions
Austin, Texas
Clear
Clear
26°
Feels Like: 27°
Wind Chill: 26° Ceiling: Unl
Heat Index: 27° Visibility: 10mi
Dew Point: 17° Wind: 3mph
Humidity: 56% Direction: 30° (NNE)
Pressure: 29.99in Gusts: 0mph
Raw Report DataKATT 010851Z AUTO 03003KT 10SM CLR 26/17 A2999 RMK AO2 SLP140 T02610167 56007
Traffic Incident Summary
Active as of:
Severity:
Category:
InformationThere was an issue retrieving the traffic information for this location. Please try a different location or try again shortly.
Advertisements
Track Severe Weather on mobile